Island Falls, Canada
Current Conditions -  °F | °C
As of 6:00 PM on Sunday 25 Jan 2015 (Local Time) from CYFO Reporting Station
Light Snow Light Snow  
Wind Chill: 19°   Ceiling: 500
Heat Index: 19°   Visibility: 2.5mi
Dew Point: 18°   Wind: 0mph
Humidity: 93%   Direction: NA
Pressure: 29.42"   Gusts: NA
Location:  55.53°N, 102.33°W
Report Text: CYFO 260000Z 00000KT 2 1/2SM -SN OVC005 M07/M08 A2942 RMK SC8 /S01/ LAST OBS/NEXT 261200UTC SNW COV/MUCH LOOSE SLP988
Loading
Personal Weather Stations






























Interactive Weather Map New forecast layout! Learn more

10-Day Weather Forecast

Advertisements
Track Severe Weather on mobile